sensor_id;sensor_type;location;lat;lon;timestamp;pressure;altitude;pressure_sealevel;temperature;humidity
46394;BME280;32099;53.588;10.176;2023-03-26T00:01:12;99794.59;;;8.19;89.23
46394;BME280;32099;53.588;10.176;2023-03-26T00:03:40;99793.56;;;8.20;88.87
46394;BME280;32099;53.588;10.176;2023-03-26T00:06:10;99796.06;;;8.22;89.80
46394;BME280;32099;53.588;10.176;2023-03-26T00:08:37;99798.13;;;8.19;89.65
46394;BME280;32099;53.588;10.176;2023-03-26T00:11:05;99812.75;;;8.18;89.83
46394;BME280;32099;53.588;10.176;2023-03-26T00:13:31;99812.84;;;8.10;90.21
46394;BME280;32099;53.588;10.176;2023-03-26T00:15:57;99813.88;;;8.09;89.82
46394;BME280;32099;53.588;10.176;2023-03-26T00:18:23;99815.56;;;8.10;89.71
46394;BME280;32099;53.588;10.176;2023-03-26T00:20:54;99811.38;;;8.08;90.12
46394;BME280;32099;53.588;10.176;2023-03-26T00:23:19;99823.50;;;8.12;90.28
46394;BME280;32099;53.588;10.176;2023-03-26T00:25:45;99831.50;;;8.13;89.66
46394;BME280;32099;53.588;10.176;2023-03-26T00:28:14;99837.38;;;8.17;89.83
46394;BME280;32099;53.588;10.176;2023-03-26T00:30:41;99828.19;;;8.18;89.45
46394;BME280;32099;53.588;10.176;2023-03-26T00:33:06;99841.78;;;8.18;89.60
46394;BME280;32099;53.588;10.176;2023-03-26T00:35:35;99837.00;;;8.20;89.67
46394;BME280;32099;53.588;10.176;2023-03-26T00:38:01;99842.25;;;8.22;89.87
46394;BME280;32099;53.588;10.176;2023-03-26T00:40:27;99839.53;;;8.22;89.78
46394;BME280;32099;53.588;10.176;2023-03-26T00:42:53;99846.56;;;8.16;89.75
46394;BME280;32099;53.588;10.176;2023-03-26T00:45:18;99840.22;;;8.09;90.03
46394;BME280;32099;53.588;10.176;2023-03-26T00:47:45;99853.94;;;8.07;89.78
46394;BME280;32099;53.588;10.176;2023-03-26T00:50:11;99846.66;;;8.08;90.40
46394;BME280;32099;53.588;10.176;2023-03-26T00:52:42;99848.34;;;8.09;90.04
46394;BME280;32099;53.588;10.176;2023-03-26T00:55:09;99857.53;;;8.08;91.16
46394;BME280;32099;53.588;10.176;2023-03-26T00:57:34;99843.50;;;8.04;91.96
46394;BME280;32099;53.588;10.176;2023-03-26T01:00:01;99860.81;;;8.03;90.48
46394;BME280;32099;53.588;10.176;2023-03-26T01:02:40;99862.41;;;7.97;90.85
46394;BME280;32099;53.588;10.176;2023-03-26T01:08:00;99873.91;;;7.99;90.41
46394;BME280;32099;53.588;10.176;2023-03-26T01:10:28;99874.38;;;8.03;90.16
46394;BME280;32099;53.588;10.176;2023-03-26T01:12:53;99875.03;;;8.05;90.69
46394;BME280;32099;53.588;10.176;2023-03-26T01:15:19;99883.56;;;8.02;91.29
46394;BME280;32099;53.588;10.176;2023-03-26T01:17:46;99872.41;;;7.97;90.74
46394;BME280;32099;53.588;10.176;2023-03-26T01:20:18;99881.09;;;7.92;90.69
46394;BME280;32099;53.588;10.176;2023-03-26T01:22:51;99880.44;;;7.90;90.69
46394;BME280;32099;53.588;10.176;2023-03-26T01:25:20;99880.28;;;7.92;90.57
46394;BME280;32099;53.588;10.176;2023-03-26T01:27:49;99884.47;;;7.94;90.86
46394;BME280;32099;53.588;10.176;2023-03-26T01:30:20;99899.09;;;7.93;90.40
46394;BME280;32099;53.588;10.176;2023-03-26T01:35:46;99896.84;;;7.82;90.96
46394;BME280;32099;53.588;10.176;2023-03-26T01:40:58;99905.06;;;7.74;89.52
46394;BME280;32099;53.588;10.176;2023-03-26T01:43:50;99899.53;;;7.67;90.00
46394;BME280;32099;53.588;10.176;2023-03-26T01:46:22;99911.09;;;7.61;90.16
46394;BME280;32099;53.588;10.176;2023-03-26T01:48:49;99913.72;;;7.54;89.16
46394;BME280;32099;53.588;10.176;2023-03-26T01:51:25;99903.97;;;7.45;89.72
46394;BME280;32099;53.588;10.176;2023-03-26T01:53:53;99910.81;;;7.40;89.51
46394;BME280;32099;53.588;10.176;2023-03-26T02:04:28;99916.53;;;7.22;89.90
46394;BME280;32099;53.588;10.176;2023-03-26T02:07:06;99915.31;;;7.25;89.46
46394;BME280;32099;53.588;10.176;2023-03-26T02:09:41;99922.91;;;7.30;89.43
46394;BME280;32099;53.588;10.176;2023-03-26T02:12:12;99922.91;;;7.30;89.62
46394;BME280;32099;53.588;10.176;2023-03-26T02:14:38;99918.88;;;7.25;89.16
46394;BME280;32099;53.588;10.176;2023-03-26T02:17:06;99924.69;;;7.22;89.23
46394;BME280;32099;53.588;10.176;2023-03-26T02:19:33;99926.72;;;7.20;89.67
46394;BME280;32099;53.588;10.176;2023-03-26T02:21:59;99915.19;;;7.18;89.06
46394;BME280;32099;53.588;10.176;2023-03-26T02:24:24;99916.22;;;7.17;89.51
46394;BME280;32099;53.588;10.176;2023-03-26T02:26:50;99916.41;;;7.16;89.43
46394;BME280;32099;53.588;10.176;2023-03-26T02:29:15;99914.38;;;7.18;89.31
46394;BME280;32099;53.588;10.176;2023-03-26T02:31:44;99916.06;;;7.19;88.81
46394;BME280;32099;53.588;10.176;2023-03-26T02:34:12;99927.19;;;7.24;89.22
46394;BME280;32099;53.588;10.176;2023-03-26T02:36:38;99926.16;;;7.25;89.89
46394;BME280;32099;53.588;10.176;2023-03-26T02:39:03;99919.06;;;7.24;89.20
46394;BME280;32099;53.588;10.176;2023-03-26T02:41:29;99919.91;;;7.24;89.34
46394;BME280;32099;53.588;10.176;2023-03-26T02:43:54;99929.72;;;7.25;89.10
46394;BME280;32099;53.588;10.176;2023-03-26T02:46:19;99919.91;;;7.24;89.11
46394;BME280;32099;53.588;10.176;2023-03-26T02:48:45;99925.16;;;7.26;89.12
46394;BME280;32099;53.588;10.176;2023-03-26T02:51:10;99918.22;;;7.23;88.81
46394;BME280;32099;53.588;10.176;2023-03-26T02:53:35;99924.28;;;7.25;88.71
46394;BME280;32099;53.588;10.176;2023-03-26T02:56:01;99929.34;;;7.29;88.84
46394;BME280;32099;53.588;10.176;2023-03-26T02:58:27;99917.84;;;7.26;88.65
46394;BME280;32099;53.588;10.176;2023-03-26T03:00:54;99924.47;;;7.24;88.91
46394;BME280;32099;53.588;10.176;2023-03-26T03:03:20;99921.78;;;7.24;88.90
46394;BME280;32099;53.588;10.176;2023-03-26T03:05:48;99935.53;;;7.22;89.27
46394;BME280;32099;53.588;10.176;2023-03-26T03:08:16;99931.22;;;7.05;90.28
46394;BME280;32099;53.588;10.176;2023-03-26T03:10:58;99932.25;;;7.04;89.85
46394;BME280;32099;53.588;10.176;2023-03-26T03:13:25;99933.66;;;7.00;89.19
46394;BME280;32099;53.588;10.176;2023-03-26T03:15:51;99925.69;;;6.98;88.81
46394;BME280;32099;53.588;10.176;2023-03-26T03:18:16;99939.06;;;7.00;88.07
46394;BME280;32099;53.588;10.176;2023-03-26T03:20:41;99929.25;;;6.99;88.21
46394;BME280;32099;53.588;10.176;2023-03-26T03:23:07;99929.78;;;6.94;87.85
46394;BME280;32099;53.588;10.176;2023-03-26T03:25:32;99929.78;;;6.94;88.31
46394;BME280;32099;53.588;10.176;2023-03-26T03:27:58;99930.81;;;6.93;88.67
46394;BME280;32099;53.588;10.176;2023-03-26T03:30:23;99936.56;;;6.90;88.46
46394;BME280;32099;53.588;10.176;2023-03-26T03:32:49;99936.78;;;6.88;88.35
46394;BME280;32099;53.588;10.176;2023-03-26T03:35:14;99921.16;;;6.90;88.09
46394;BME280;32099;53.588;10.176;2023-03-26T03:37:39;99921.00;;;6.92;88.28
46394;BME280;32099;53.588;10.176;2023-03-26T03:40:05;99924.91;;;6.89;87.84
46394;BME280;32099;53.588;10.176;2023-03-26T03:42:32;99933.38;;;6.86;87.83
46394;BME280;32099;53.588;10.176;2023-03-26T03:44:57;99936.25;;;6.85;88.08
46394;BME280;32099;53.588;10.176;2023-03-26T03:47:23;99935.63;;;6.83;88.19
46394;BME280;32099;53.588;10.176;2023-03-26T03:49:48;99934.09;;;6.80;88.10
46394;BME280;32099;53.588;10.176;2023-03-26T03:52:14;99935.63;;;6.83;88.07
46394;BME280;32099;53.588;10.176;2023-03-26T03:54:40;99926.75;;;6.89;88.21
46394;BME280;32099;53.588;10.176;2023-03-26T03:57:05;99932.66;;;6.92;87.60
46394;BME280;32099;53.588;10.176;2023-03-26T03:59:30;99938.28;;;6.91;88.09
46394;BME280;32099;53.588;10.176;2023-03-26T04:01:56;99934.69;;;6.90;87.61
46394;BME280;32099;53.588;10.176;2023-03-26T04:04:21;99939.28;;;6.90;87.38
46394;BME280;32099;53.588;10.176;2023-03-26T04:06:48;99936.78;;;6.88;87.50
46394;BME280;32099;53.588;10.176;2023-03-26T04:09:14;99935.06;;;6.87;87.68
46394;BME280;32099;53.588;10.176;2023-03-26T04:11:39;99930.69;;;6.86;87.75
46394;BME280;32099;53.588;10.176;2023-03-26T04:14:04;99930.34;;;6.89;87.71
46394;BME280;32099;53.588;10.176;2023-03-26T04:16:30;99936.56;;;6.90;87.79
46394;BME280;32099;53.588;10.176;2023-03-26T04:18:55;99929.81;;;6.86;87.64
46394;BME280;32099;53.588;10.176;2023-03-26T04:21:22;99924.94;;;6.81;87.34
46394;BME280;32099;53.588;10.176;2023-03-26T04:23:48;99930.34;;;6.81;87.60
46394;BME280;32099;53.588;10.176;2023-03-26T04:26:15;99925.47;;;6.76;87.54
46394;BME280;32099;53.588;10.176;2023-03-26T04:28:52;99920.25;;;6.75;87.32
46394;BME280;32099;53.588;10.176;2023-03-26T04:31:21;99916.69;;;6.74;87.86
46394;BME280;32099;53.588;10.176;2023-03-26T04:33:53;99916.88;;;6.73;86.85
46394;BME280;32099;53.588;10.176;2023-03-26T04:36:27;99919.25;;;6.68;87.03
46394;BME280;32099;53.588;10.176;2023-03-26T04:38:54;99916.06;;;6.64;86.73
46394;BME280;32099;53.588;10.176;2023-03-26T04:41:22;99914.38;;;6.63;86.64
46394;BME280;32099;53.588;10.176;2023-03-26T04:43:50;99916.25;;;6.62;86.40
46394;BME280;32099;53.588;10.176;2023-03-26T04:46:16;99917.59;;;6.58;86.13
46394;BME280;32099;53.588;10.176;2023-03-26T04:48:48;99910.88;;;6.54;86.08
46394;BME280;32099;53.588;10.176;2023-03-26T04:51:15;99917.00;;;6.48;85.75
46394;BME280;32099;53.588;10.176;2023-03-26T04:53:52;99917.34;;;6.45;85.98
46394;BME280;32099;53.588;10.176;2023-03-26T04:56:33;99915.66;;;6.44;86.12
46394;BME280;32099;53.588;10.176;2023-03-26T04:59:05;99919.75;;;6.40;86.97
46394;BME280;32099;53.588;10.176;2023-03-26T05:01:32;99919.25;;;6.36;85.97
46394;BME280;32099;53.588;10.176;2023-03-26T05:04:01;99926.03;;;6.32;85.41
46394;BME280;32099;53.588;10.176;2023-03-26T05:06:26;99934.19;;;6.24;86.06
46394;BME280;32099;53.588;10.176;2023-03-26T05:08:53;99921.53;;;6.16;86.02
46394;BME280;32099;53.588;10.176;2023-03-26T05:11:18;99927.28;;;6.13;86.69
46394;BME280;32099;53.588;10.176;2023-03-26T05:13:44;99921.19;;;6.11;86.33
46394;BME280;32099;53.588;10.176;2023-03-26T05:16:10;99924.75;;;6.11;86.10
46394;BME280;32099;53.588;10.176;2023-03-26T05:18:36;99918.47;;;6.11;85.68
46394;BME280;32099;53.588;10.176;2023-03-26T05:21:02;99928.28;;;6.12;86.00
46394;BME280;32099;53.588;10.176;2023-03-26T05:23:27;99933.91;;;6.10;85.92
46394;BME280;32099;53.588;10.176;2023-03-26T05:25:52;99931.19;;;6.10;86.48
46394;BME280;32099;53.588;10.176;2023-03-26T05:28:18;99932.34;;;6.16;86.07
46394;BME280;32099;53.588;10.176;2023-03-26T05:30:44;99937.44;;;6.19;86.02
46394;BME280;32099;53.588;10.176;2023-03-26T05:33:10;99933.69;;;6.20;86.03
46394;BME280;32099;53.588;10.176;2023-03-26T05:35:36;99928.78;;;6.24;86.02
46394;BME280;32099;53.588;10.176;2023-03-26T05:38:01;99933.00;;;6.26;86.04
46394;BME280;32099;53.588;10.176;2023-03-26T05:40:27;99929.09;;;6.29;85.93
46394;BME280;32099;53.588;10.176;2023-03-26T05:42:52;99933.47;;;6.30;85.96
46394;BME280;32099;53.588;10.176;2023-03-26T05:45:17;99934.34;;;6.30;85.59
46394;BME280;32099;53.588;10.176;2023-03-26T05:47:43;99939.09;;;6.28;86.01
46394;BME280;32099;53.588;10.176;2023-03-26T05:50:08;99937.56;;;6.26;86.03
46394;BME280;32099;53.588;10.176;2023-03-26T05:52:34;99934.53;;;6.21;85.78
46394;BME280;32099;53.588;10.176;2023-03-26T05:55:00;99941.63;;;6.22;86.00
46394;BME280;32099;53.588;10.176;2023-03-26T05:57:28;99943.84;;;6.18;86.40
46394;BME280;32099;53.588;10.176;2023-03-26T05:59:54;99951.31;;;6.16;86.43
46394;BME280;32099;53.588;10.176;2023-03-26T06:02:20;99940.66;;;6.14;86.12
46394;BME280;32099;53.588;10.176;2023-03-26T06:04:45;99950.44;;;6.15;86.48
46394;BME280;32099;53.588;10.176;2023-03-26T06:07:11;99950.09;;;6.18;87.54
46394;BME280;32099;53.588;10.176;2023-03-26T06:09:37;99946.88;;;6.23;86.39
46394;BME280;32099;53.588;10.176;2023-03-26T06:12:04;99942.66;;;6.21;86.98
46394;BME280;32099;53.588;10.176;2023-03-26T06:14:30;99958.56;;;6.24;86.68
46394;BME280;32099;53.588;10.176;2023-03-26T06:16:55;99957.84;;;6.30;86.42
46394;BME280;32099;53.588;10.176;2023-03-26T06:19:20;99960.56;;;6.30;86.68
46394;BME280;32099;53.588;10.176;2023-03-26T06:21:45;99957.31;;;6.35;86.50
46394;BME280;32099;53.588;10.176;2023-03-26T06:24:11;99960.84;;;6.43;86.09
46394;BME280;32099;53.588;10.176;2023-03-26T06:26:36;99954.22;;;6.46;85.70
46394;BME280;32099;53.588;10.176;2023-03-26T06:29:02;99961.66;;;6.52;85.90
46394;BME280;32099;53.588;10.176;2023-03-26T06:31:27;99954.03;;;6.56;85.47
46394;BME280;32099;53.588;10.176;2023-03-26T06:33:52;99966.22;;;6.60;85.59
46394;BME280;32099;53.588;10.176;2023-03-26T06:36:17;99965.00;;;6.62;86.10
46394;BME280;32099;53.588;10.176;2023-03-26T06:38:43;99963.81;;;6.65;85.12
46394;BME280;32099;53.588;10.176;2023-03-26T06:41:08;99969.41;;;6.63;84.51
46394;BME280;32099;53.588;10.176;2023-03-26T06:43:33;99974.34;;;6.60;84.53
46394;BME280;32099;53.588;10.176;2023-03-26T06:46:00;99969.56;;;6.62;85.00
46394;BME280;32099;53.588;10.176;2023-03-26T06:48:25;99978.22;;;6.66;84.62
46394;BME280;32099;53.588;10.176;2023-03-26T06:50:51;99981.75;;;6.66;84.01
46394;BME280;32099;53.588;10.176;2023-03-26T06:53:16;99980.91;;;6.66;85.38
46394;BME280;32099;53.588;10.176;2023-03-26T06:55:41;99989.34;;;6.71;85.40
46394;BME280;32099;53.588;10.176;2023-03-26T06:58:08;99979.84;;;6.75;84.85
46394;BME280;32099;53.588;10.176;2023-03-26T07:00:35;99984.75;;;6.79;84.41
46394;BME280;32099;53.588;10.176;2023-03-26T07:03:01;99981.50;;;6.84;84.87
46394;BME280;32099;53.588;10.176;2023-03-26T07:05:28;99985.91;;;6.85;83.93
46394;BME280;32099;53.588;10.176;2023-03-26T07:07:53;99988.75;;;6.92;84.26
46394;BME280;32099;53.588;10.176;2023-03-26T07:10:18;99982.44;;;7.00;84.82
46394;BME280;32099;53.588;10.176;2023-03-26T07:12:44;99986.47;;;7.04;83.15
46394;BME280;32099;53.588;10.176;2023-03-26T07:15:09;99991.53;;;7.07;83.36
46394;BME280;32099;53.588;10.176;2023-03-26T07:17:35;99978.66;;;7.09;82.97
46394;BME280;32099;53.588;10.176;2023-03-26T07:20:00;99981.00;;;7.12;82.82
46394;BME280;32099;53.588;10.176;2023-03-26T07:22:26;99981.50;;;7.16;82.53
46394;BME280;32099;53.588;10.176;2023-03-26T07:24:51;99981.97;;;7.19;82.07
46394;BME280;32099;53.588;10.176;2023-03-26T07:27:22;99978.78;;;7.16;80.95
46394;BME280;32099;53.588;10.176;2023-03-26T07:30:02;99982.56;;;7.06;79.79
46394;BME280;32099;53.588;10.176;2023-03-26T07:32:33;99984.13;;;7.01;80.17
46394;BME280;32099;53.588;10.176;2023-03-26T07:40:45;99986.97;;;6.76;78.42
46394;BME280;32099;53.588;10.176;2023-03-26T07:46:02;99985.13;;;6.68;80.29
46394;BME280;32099;53.588;10.176;2023-03-26T07:48:36;99983.41;;;6.75;79.94
46394;BME280;32099;53.588;10.176;2023-03-26T07:51:04;99984.56;;;6.81;79.14
46394;BME280;32099;53.588;10.176;2023-03-26T07:53:30;99984.00;;;6.86;78.95
46394;BME280;32099;53.588;10.176;2023-03-26T07:55:57;99979.94;;;6.90;78.70
46394;BME280;32099;53.588;10.176;2023-03-26T08:01:32;99983.00;;;6.87;76.58
46394;BME280;32099;53.588;10.176;2023-03-26T08:07:04;99992.69;;;6.81;75.52
46394;BME280;32099;53.588;10.176;2023-03-26T08:09:46;99987.97;;;6.75;74.33
46394;BME280;32099;53.588;10.176;2023-03-26T08:15:09;99988.91;;;6.90;76.33
46394;BME280;32099;53.588;10.176;2023-03-26T08:17:55;99993.75;;;7.03;76.68
46394;BME280;32099;53.588;10.176;2023-03-26T08:20:31;99988.13;;;7.13;74.64
46394;BME280;32099;53.588;10.176;2023-03-26T08:23:20;99994.16;;;7.23;73.44
46394;BME280;32099;53.588;10.176;2023-03-26T08:26:14;99987.91;;;7.46;72.98
46394;BME280;32099;53.588;10.176;2023-03-26T08:29:02;99989.16;;;7.59;72.67
46394;BME280;32099;53.588;10.176;2023-03-26T08:31:42;99979.06;;;7.67;74.10
46394;BME280;32099;53.588;10.176;2023-03-26T08:34:10;99989.13;;;7.82;74.49
46394;BME280;32099;53.588;10.176;2023-03-26T08:36:36;99989.88;;;7.91;73.95
46394;BME280;32099;53.588;10.176;2023-03-26T08:39:02;99992.41;;;7.92;72.38
46394;BME280;32099;53.588;10.176;2023-03-26T08:41:36;99997.00;;;7.92;70.68
46394;BME280;32099;53.588;10.176;2023-03-26T08:44:36;99992.28;;;7.85;68.97
46394;BME280;32099;53.588;10.176;2023-03-26T08:58:33;100002.66;;;8.05;70.62
46394;BME280;32099;53.588;10.176;2023-03-26T09:01:34;99997.28;;;7.97;65.39
46394;BME280;32099;53.588;10.176;2023-03-26T09:04:24;99982.06;;;8.11;66.37
46394;BME280;32099;53.588;10.176;2023-03-26T09:18:54;99991.78;;;8.80;67.14
46394;BME280;32099;53.588;10.176;2023-03-26T09:21:44;99991.34;;;8.61;65.36
46394;BME280;32099;53.588;10.176;2023-03-26T09:24:46;99979.34;;;8.86;66.30
46394;BME280;32099;53.588;10.176;2023-03-26T09:30:12;99971.34;;;9.86;66.20
46394;BME280;32099;53.588;10.176;2023-03-26T09:33:17;99976.91;;;10.34;63.26
46394;BME280;32099;53.588;10.176;2023-03-26T09:36:03;99969.84;;;10.47;59.27
46394;BME280;32099;53.588;10.176;2023-03-26T09:43:50;99986.34;;;11.29;62.01
46394;BME280;32099;53.588;10.176;2023-03-26T09:46:39;99989.28;;;11.21;58.51
46394;BME280;32099;53.588;10.176;2023-03-26T09:52:07;99989.41;;;10.51;60.72
46394;BME280;32099;53.588;10.176;2023-03-26T09:55:01;99989.75;;;10.41;61.56
46394;BME280;32099;53.588;10.176;2023-03-26T09:57:51;99997.91;;;10.12;61.16
46394;BME280;32099;53.588;10.176;2023-03-26T10:00:27;99997.09;;;9.83;61.38
46394;BME280;32099;53.588;10.176;2023-03-26T10:13:39;100001.69;;;10.40;60.93
46394;BME280;32099;53.588;10.176;2023-03-26T10:16:22;100004.16;;;10.63;59.27
46394;BME280;32099;53.588;10.176;2023-03-26T10:19:18;100010.22;;;10.58;62.63
46394;BME280;32099;53.588;10.176;2023-03-26T10:22:13;100002.72;;;10.39;60.78
46394;BME280;32099;53.588;10.176;2023-03-26T10:28:00;100002.88;;;10.02;61.31
46394;BME280;32099;53.588;10.176;2023-03-26T10:33:43;99999.59;;;10.77;60.69
46394;BME280;32099;53.588;10.176;2023-03-26T10:36:22;99998.25;;;11.08;58.27
46394;BME280;32099;53.588;10.176;2023-03-26T10:42:21;99997.59;;;11.06;56.90
46394;BME280;32099;53.588;10.176;2023-03-26T10:50:25;100013.69;;;10.45;60.40
46394;BME280;32099;53.588;10.176;2023-03-26T10:53:02;100004.78;;;10.37;61.23
46394;BME280;32099;53.588;10.176;2023-03-26T10:55:38;100004.50;;;10.53;60.17
46394;BME280;32099;53.588;10.176;2023-03-26T10:58:24;100006.34;;;10.81;59.94
46394;BME280;32099;53.588;10.176;2023-03-26T11:00:58;99990.94;;;11.15;60.00
46394;BME280;32099;53.588;10.176;2023-03-26T11:03:38;100000.63;;;11.31;58.63
46394;BME280;32099;53.588;10.176;2023-03-26T11:17:50;100000.72;;;12.05;57.73
46394;BME280;32099;53.588;10.176;2023-03-26T11:23:13;99997.72;;;11.80;58.28
46394;BME280;32099;53.588;10.176;2023-03-26T11:25:58;100000.03;;;11.49;54.88
46394;BME280;32099;53.588;10.176;2023-03-26T11:28:51;99997.66;;;11.26;57.59
46394;BME280;32099;53.588;10.176;2023-03-26T11:34:39;100002.91;;;11.21;54.75
46394;BME280;32099;53.588;10.176;2023-03-26T11:37:15;99994.09;;;11.19;55.59
46394;BME280;32099;53.588;10.176;2023-03-26T11:39:49;99989.28;;;11.21;58.19
46394;BME280;32099;53.588;10.176;2023-03-26T11:42:16;99995.56;;;11.28;55.52
46394;BME280;32099;53.588;10.176;2023-03-26T11:44:54;99991.59;;;11.37;57.71
46394;BME280;32099;53.588;10.176;2023-03-26T11:47:24;99995.19;;;11.45;57.32
46394;BME280;32099;53.588;10.176;2023-03-26T11:49:54;99984.72;;;11.68;55.26
46394;BME280;32099;53.588;10.176;2023-03-26T11:52:24;99984.94;;;11.67;57.82
46394;BME280;32099;53.588;10.176;2023-03-26T11:54:50;99983.44;;;11.57;55.47
46394;BME280;32099;53.588;10.176;2023-03-26T11:57:17;99988.47;;;11.47;55.92
46394;BME280;32099;53.588;10.176;2023-03-26T11:59:50;99977.97;;;11.37;56.03
46394;BME280;32099;53.588;10.176;2023-03-26T12:05:02;99984.72;;;11.48;57.64
46394;BME280;32099;53.588;10.176;2023-03-26T12:07:40;99981.56;;;11.71;59.00
46394;BME280;32099;53.588;10.176;2023-03-26T12:10:19;99982.41;;;11.92;57.52
46394;BME280;32099;53.588;10.176;2023-03-26T12:12:48;99976.13;;;12.05;56.86
46394;BME280;32099;53.588;10.176;2023-03-26T12:15:18;99983.06;;;12.08;54.12
46394;BME280;32099;53.588;10.176;2023-03-26T12:17:46;99984.13;;;12.00;51.78
46394;BME280;32099;53.588;10.176;2023-03-26T12:22:47;99985.78;;;12.14;53.35
46394;BME280;32099;53.588;10.176;2023-03-26T12:27:47;99970.84;;;12.30;53.81
46394;BME280;32099;53.588;10.176;2023-03-26T12:30:36;99970.41;;;12.40;54.80
46394;BME280;32099;53.588;10.176;2023-03-26T12:33:04;99977.72;;;12.46;53.59
46394;BME280;32099;53.588;10.176;2023-03-26T12:35:38;99974.81;;;12.48;55.28
46394;BME280;32099;53.588;10.176;2023-03-26T12:40:53;99977.03;;;12.71;53.22
46394;BME280;32099;53.588;10.176;2023-03-26T12:43:41;99975.53;;;12.82;52.89
46394;BME280;32099;53.588;10.176;2023-03-26T12:46:22;99968.97;;;12.83;48.03
46394;BME280;32099;53.588;10.176;2023-03-26T12:48:53;99974.50;;;12.76;50.00
46394;BME280;32099;53.588;10.176;2023-03-26T12:59:38;99976.94;;;12.98;55.37
46394;BME280;32099;53.588;10.176;2023-03-26T13:02:17;99979.78;;;13.17;53.78
46394;BME280;32099;53.588;10.176;2023-03-26T13:15:50;99973.50;;;13.09;53.89
46394;BME280;32099;53.588;10.176;2023-03-26T13:18:41;99967.38;;;13.14;50.75
46394;BME280;32099;53.588;10.176;2023-03-26T13:21:24;99982.38;;;13.05;53.51
46394;BME280;32099;53.588;10.176;2023-03-26T13:24:03;99974.16;;;13.05;55.23
46394;BME280;32099;53.588;10.176;2023-03-26T13:26:46;99974.38;;;13.03;52.43
46394;BME280;32099;53.588;10.176;2023-03-26T13:29:25;99968.06;;;13.03;50.86
46394;BME280;32099;53.588;10.176;2023-03-26T13:32:08;99969.28;;;13.07;52.17
46394;BME280;32099;53.588;10.176;2023-03-26T13:37:40;99965.84;;;13.18;54.20
46394;BME280;32099;53.588;10.176;2023-03-26T13:43:03;99959.53;;;13.24;52.57
46394;BME280;32099;53.588;10.176;2023-03-26T13:45:36;99959.31;;;13.19;49.96
46394;BME280;32099;53.588;10.176;2023-03-26T13:48:20;99972.28;;;12.99;50.93
46394;BME280;32099;53.588;10.176;2023-03-26T13:50:54;99970.22;;;12.87;50.79
46394;BME280;32099;53.588;10.176;2023-03-26T13:53:24;99963.97;;;12.80;51.67
46394;BME280;32099;53.588;10.176;2023-03-26T13:55:58;99957.25;;;12.69;52.41
46394;BME280;32099;53.588;10.176;2023-03-26T14:01:18;99959.63;;;12.59;53.85
46394;BME280;32099;53.588;10.176;2023-03-26T14:03:49;99964.84;;;12.67;53.77
46394;BME280;32099;53.588;10.176;2023-03-26T14:09:20;99955.22;;;12.51;48.78
46394;BME280;32099;53.588;10.176;2023-03-26T14:11:56;99966.81;;;12.40;45.83
46394;BME280;32099;53.588;10.176;2023-03-26T14:20:09;99974.84;;;11.94;53.08
46394;BME280;32099;53.588;10.176;2023-03-26T14:28:05;99968.75;;;12.12;53.26
46394;BME280;32099;53.588;10.176;2023-03-26T14:30:51;99971.50;;;12.19;54.33
46394;BME280;32099;53.588;10.176;2023-03-26T14:39:18;99973.34;;;12.39;54.12
46394;BME280;32099;53.588;10.176;2023-03-26T14:42:07;99968.72;;;12.39;53.56
46394;BME280;32099;53.588;10.176;2023-03-26T14:47:21;99980.28;;;12.41;50.47
46394;BME280;32099;53.588;10.176;2023-03-26T14:52:59;99973.81;;;12.22;51.37
46394;BME280;32099;53.588;10.176;2023-03-26T15:01:13;99978.44;;;11.88;53.35
46394;BME280;32099;53.588;10.176;2023-03-26T15:21:20;99970.88;;;11.70;51.53
46394;BME280;32099;53.588;10.176;2023-03-26T15:24:22;99972.31;;;11.72;52.10
46394;BME280;32099;53.588;10.176;2023-03-26T15:36:11;99987.06;;;11.98;51.68
46394;BME280;32099;53.588;10.176;2023-03-26T15:41:55;99989.97;;;11.70;54.41
46394;BME280;32099;53.588;10.176;2023-03-26T15:44:34;99990.59;;;11.65;53.95
46394;BME280;32099;53.588;10.176;2023-03-26T15:47:25;99978.81;;;11.58;51.99
46394;BME280;32099;53.588;10.176;2023-03-26T15:52:58;99992.88;;;11.35;53.91
46394;BME280;32099;53.588;10.176;2023-03-26T15:58:51;99983.63;;;11.29;48.73
46394;BME280;32099;53.588;10.176;2023-03-26T16:07:28;99999.56;;;11.39;54.05
46394;BME280;32099;53.588;10.176;2023-03-26T16:10:37;99991.84;;;11.42;51.24
46394;BME280;32099;53.588;10.176;2023-03-26T16:15:41;99998.31;;;11.28;53.72
46394;BME280;32099;53.588;10.176;2023-03-26T16:20:52;100007.44;;;11.00;51.04
46394;BME280;32099;53.588;10.176;2023-03-26T16:33:47;100026.25;;;10.46;54.47
46394;BME280;32099;53.588;10.176;2023-03-26T16:41:15;100027.28;;;10.17;55.49
46394;BME280;32099;53.588;10.176;2023-03-26T16:44:11;100027.44;;;10.09;55.38
46394;BME280;32099;53.588;10.176;2023-03-26T16:46:59;100021.09;;;10.01;54.08
46394;BME280;32099;53.588;10.176;2023-03-26T16:49:35;100022.25;;;9.92;56.18
46394;BME280;32099;53.588;10.176;2023-03-26T16:52:31;100025.97;;;9.84;57.54
46394;BME280;32099;53.588;10.176;2023-03-26T16:55:18;100040.00;;;9.81;57.11
46394;BME280;32099;53.588;10.176;2023-03-26T17:00:24;100041.16;;;9.72;56.32
46394;BME280;32099;53.588;10.176;2023-03-26T17:02:56;100048.22;;;9.66;55.44
46394;BME280;32099;53.588;10.176;2023-03-26T17:05:39;100047.31;;;9.59;56.47
46394;BME280;32099;53.588;10.176;2023-03-26T17:08:32;100051.00;;;9.51;56.17
46394;BME280;32099;53.588;10.176;2023-03-26T17:16:37;100060.44;;;9.34;57.02
46394;BME280;32099;53.588;10.176;2023-03-26T17:19:13;100066.06;;;9.32;57.04
46394;BME280;32099;53.588;10.176;2023-03-26T17:21:55;100069.19;;;9.29;56.77
46394;BME280;32099;53.588;10.176;2023-03-26T17:24:26;100075.66;;;9.28;56.24
46394;BME280;32099;53.588;10.176;2023-03-26T17:27:09;100074.16;;;9.25;57.70
46394;BME280;32099;53.588;10.176;2023-03-26T17:30:28;100077.44;;;9.21;57.05
46394;BME280;32099;53.588;10.176;2023-03-26T17:35:47;100080.72;;;9.16;57.44